Beckley, West Virginia
Current Conditions -  °F | °C
As of 2:51 AM on Monday 22 Dec 2014 (Local Time) from KBKW Reporting Station
Few Clouds Few Clouds  
Wind Chill: 26°   Ceiling: Unl
Heat Index: 35°   Visibility: 10mi
Dew Point: 30°   Wind: 13mph
Humidity: 82%   Direction: 140°SE
Pressure: 30.09"   Gusts: NA
Location:  37.78°N, 81.19°W
Report Text: KBKW 220751Z AUTO 14011KT 10SM FEW012 02/M01 A3009 RMK AO2 SLP205 T00171011 $
Loading
Personal Weather Stations






























Interactive Weather Map New forecast layout! Learn more

10-Day Weather Forecast

Advertisements
Track Severe Weather on mobile